createdAt,value
2019-06-20T00:06:43.570Z,956.4
2019-06-20T00:16:46.902Z,956.5
2019-06-20T00:26:50.237Z,956.5
2019-06-20T00:36:53.685Z,956.7
2019-06-20T00:46:57.011Z,956.8
2019-06-20T00:57:00.359Z,956.8
2019-06-20T01:07:03.706Z,956.7
2019-06-20T01:17:07.074Z,957
2019-06-20T01:27:10.401Z,957.1
2019-06-20T01:37:13.806Z,957.2
2019-06-20T01:47:17.146Z,957.4
2019-06-20T01:57:20.490Z,957.3
2019-06-20T02:07:27.921Z,957.4
2019-06-20T02:17:31.610Z,957.6
2019-06-20T02:27:34.954Z,957.8
2019-06-20T02:37:38.299Z,957.8
2019-06-20T02:47:41.679Z,957.6
2019-06-20T02:57:45.046Z,957.8
2019-06-20T03:07:48.535Z,957.8
2019-06-20T03:17:51.893Z,957.7
2019-06-20T03:27:55.398Z,958.1
2019-06-20T03:37:58.753Z,958.1
2019-06-20T03:48:02.134Z,958.3
2019-06-20T03:58:05.515Z,958.3
2019-06-20T04:08:08.885Z,958.4
2019-06-20T04:18:12.248Z,958.3
2019-06-20T04:28:15.598Z,958.3
2019-06-20T04:38:18.981Z,958.3
2019-06-20T04:48:22.316Z,958.2
2019-06-20T04:58:25.667Z,958.2
2019-06-20T05:08:29.059Z,957.9
2019-06-20T05:18:32.434Z,958.1
2019-06-20T05:28:35.776Z,958.1
2019-06-20T05:38:39.174Z,959.6
2019-06-20T05:48:43.583Z,959.7
2019-06-20T05:58:46.931Z,959.8
2019-06-20T06:08:50.271Z,959.8
2019-06-20T06:18:53.606Z,959.9
2019-06-20T06:28:57.004Z,959.8
2019-06-20T06:39:00.351Z,959.8
2019-06-20T06:49:03.811Z,960.9
2019-06-20T06:59:07.198Z,961.7
2019-06-20T07:09:10.569Z,961.5
2019-06-20T07:19:13.942Z,961.9
2019-06-20T07:29:17.280Z,961.5
2019-06-20T07:39:20.617Z,962.4
2019-06-20T07:49:23.980Z,963.2
2019-06-20T07:59:27.320Z,963.3
2019-06-20T08:09:45.798Z,963.5
2019-06-20T08:19:49.191Z,963
2019-06-20T08:29:52.614Z,963.3
2019-06-20T08:40:00.125Z,963.2
2019-06-20T08:50:04.104Z,963.8
2019-06-20T09:00:07.709Z,963.8
2019-06-20T09:10:11.105Z,957.3
2019-06-20T09:20:14.485Z,958
2019-06-20T09:30:17.860Z,957.9
2019-06-20T09:40:21.244Z,958.7
2019-06-20T09:50:24.646Z,964.8
2019-06-20T10:00:27.992Z,964.3
2019-06-20T10:10:31.329Z,964.8
2019-06-20T10:20:34.811Z,964.6
2019-06-20T10:30:38.209Z,964.6
2019-06-20T10:40:41.614Z,957.7
2019-06-20T10:50:45.924Z,964.8
2019-06-20T11:00:50.616Z,958
2019-06-20T11:10:53.950Z,957.9
2019-06-20T11:20:57.303Z,958.8
2019-06-20T11:31:01.153Z,959.2
2019-06-20T11:41:04.525Z,958.7
2019-06-20T11:51:07.887Z,958.7
2019-06-20T12:01:11.228Z,958.8
2019-06-20T12:11:14.575Z,958.8
2019-06-20T12:21:18.076Z,958.9
2019-06-20T12:31:21.408Z,959
2019-06-20T12:41:24.750Z,958.4
2019-06-20T12:51:29.091Z,958
2019-06-20T13:01:49.771Z,957.9
2019-06-20T13:11:53.361Z,957.9
2019-06-20T13:21:56.854Z,957.6
2019-06-20T13:32:04.907Z,957.5
2019-06-20T13:42:08.247Z,957.2
2019-06-20T13:52:11.656Z,956.8
2019-06-20T14:02:15.024Z,956.7
2019-06-20T14:12:18.352Z,963.6
2019-06-20T14:22:21.715Z,963.5
2019-06-20T14:32:25.074Z,963.2
2019-06-20T14:42:28.409Z,963
2019-06-20T14:52:31.745Z,963
2019-06-20T15:02:39.472Z,962.8
2019-06-20T15:12:42.821Z,962.3
2019-06-20T15:22:52.861Z,961.8
2019-06-20T15:33:10.936Z,961.6
2019-06-20T15:43:14.303Z,961.3
2019-06-20T15:53:17.646Z,961.2
2019-06-20T16:03:21.058Z,961.2
2019-06-20T16:13:24.553Z,961.7
2019-06-20T16:23:27.945Z,962
2019-06-20T16:33:31.349Z,961.9
2019-06-20T16:43:34.733Z,961.8
2019-06-20T16:53:38.083Z,961.7
2019-06-20T17:03:42.486Z,961.9
2019-06-20T17:13:45.830Z,961.6
2019-06-20T17:23:49.219Z,961.7
2019-06-20T17:33:58.251Z,961.6
2019-06-20T17:44:01.616Z,961.5
2019-06-20T17:54:04.996Z,961.7
2019-06-20T18:04:14.567Z,961.9
2019-06-20T18:14:17.931Z,961.6
2019-06-20T18:24:21.321Z,961.9
2019-06-20T18:34:30.821Z,962
2019-06-20T18:44:34.151Z,962.3
2019-06-20T18:54:37.520Z,962.3
2019-06-20T19:04:51.134Z,962.5
2019-06-20T19:14:54.478Z,962.6
2019-06-20T19:24:57.869Z,962.7
2019-06-20T19:35:03.180Z,962.9
2019-06-20T19:45:06.540Z,963.1
2019-06-20T19:55:09.987Z,963.2
2019-06-20T20:05:20.359Z,963.5
2019-06-20T20:15:23.862Z,963.5
2019-06-20T20:25:27.218Z,963.6
2019-06-20T20:35:36.371Z,963.7
2019-06-20T20:45:39.750Z,963.8
2019-06-20T20:55:43.145Z,963.8
2019-06-20T21:05:52.210Z,963.8
2019-06-20T21:15:55.678Z,963.9
2019-06-20T21:25:59.071Z,963.9
2019-06-20T21:36:09.608Z,964
2019-06-20T21:46:12.980Z,964.1
2019-06-20T21:56:16.313Z,964.2
2019-06-20T22:06:24.492Z,964.3
2019-06-20T22:16:27.946Z,964.4
2019-06-20T22:26:31.285Z,964.4
2019-06-20T22:36:41.032Z,964.5
2019-06-20T22:46:44.376Z,964.4
2019-06-20T22:56:47.745Z,964.3
2019-06-20T23:06:57.313Z,964.2
2019-06-20T23:17:00.662Z,964.3
2019-06-20T23:27:04.009Z,964.5
2019-06-20T23:37:13.647Z,964.4
2019-06-20T23:47:17.022Z,964.4
2019-06-20T23:57:20.354Z,964.5
